Flight Track Log - Related Links

Times and Time Zones

All times are in EST time to prevent confusion due to time zone crossing. See the RPA3288 flight status page for this flight to view local times or setup timezone preferences in your user account.


Time Position Orientation Groundspeed Altitude Reporting Facility
EST Latitude Longitude Course Direction KTS MPH feet Rate Location/Type
Thu 01:08:20 PM 26.6669 -81.6800 339° North 260 299 6,100  Level Miami Center
Thu 01:09:20 PM 26.7519 -81.6950 351° North 265 305 9,000 2,550 Climbing Miami Center
Thu 01:10:20 PM 26.8414 -81.7103 351° North 295 339 11,200 2,400 Climbing Miami Center
Thu 01:11:20 PM 26.9325 -81.7306 349° North 332 382 13,800 2,350 Climbing Miami Center
Thu 01:12:00 PM 27.4475 -81.8846 339° North  Level FlightAware Approximate
Thu 01:12:20 PM 27.0217 -81.7481 350° North 353 406 15,900  Level Miami Center
Thu 01:13:20 PM 27.1186 -81.7778 345° North 353 406 17,900 1,850 Climbing Miami Center
Thu 01:14:20 PM 27.2200 -81.8103 344° North 358 412 19,600 1,700 Climbing Miami Center
Thu 01:15:20 PM 27.3272 -81.8453 344° North 382 440 21,300 1,800 Climbing Miami Center
Thu 01:16:20 PM 27.4489 -81.8878 343° North 404 465 23,200 1,900 Climbing Miami Center
Thu 01:17:20 PM 27.5603 -81.9233 344° North 410 472 25,100 1,600 Climbing Miami Center
Thu 01:18:20 PM 27.6803 -81.8933 12° North 422 486 26,400 1,150 Climbing Miami Center
Thu 01:19:20 PM 27.7831 -81.8228 31° Northeast 446 513 27,400 1,050 Climbing Miami Center
Thu 01:20:20 PM 27.9153 -81.7394 29° Northeast 472 543 28,500 1,050 Climbing Miami Center
Thu 01:21:20 PM 28.0367 -81.6600 30° Northeast 484 557 29,500 950 Climbing Miami Center
Thu 01:22:20 PM 28.1603 -81.5875 27° Northeast 497 572 30,400 850 Climbing Miami Center
Thu 01:23:20 PM 28.2964 -81.5719 North 479 551 31,200 800 Climbing Miami Center
Thu 01:24:20 PM 28.4319 -81.5706 North 478 550 32,000 850 Climbing Miami Center
Thu 01:25:20 PM 28.5656 -81.5669 North 483 556 32,900 968 Climbing Miami Center
Thu 01:26:24 PM 28.7022 -81.5622 North 497 572 34,000 919 Climbing Jacksonville Center
Thu 01:27:24 PM 28.8378 -81.5558 North 491 565 34,800 500 Climbing Jacksonville Center
Thu 01:28:24 PM 28.9736 -81.5539 North 486 559 35,000 100 Climbing Jacksonville Center
Thu 01:29:24 PM 29.1092 -81.5497 North 486 559 35,000  Level Jacksonville Center
Thu 01:30:24 PM 29.2594 -81.5500 360° North 486 559 35,000  Level Jacksonville Center
Thu 01:31:24 PM 29.3972 -81.5433 North 491 565 35,000  Level Jacksonville Center
Thu 01:32:24 PM 29.5369 -81.5392 North 496 571 35,000  Level Jacksonville Center
Thu 01:33:24 PM 29.6725 -81.5325 North 496 571 35,000  Level Jacksonville Center
Thu 01:34:24 PM 29.8083 -81.5283 North 496 571 35,000  Level Jacksonville Center
Thu 01:35:24 PM 29.9481 -81.5239 North 496 571 35,000  Level Jacksonville Center
Thu 01:36:24 PM 30.0839 -81.5194 North 496 571 35,000  Level Jacksonville Center
Thu 01:37:24 PM 30.2194 -81.5153 North 490 564 35,000  Level Jacksonville Center
Thu 01:38:24 PM 30.3425 -81.5111 North 490 564 35,000  Level Jacksonville Center
Thu 01:39:24 PM 30.4803 -81.4969 North 490 564 35,000  Level Jacksonville Center
Thu 01:40:24 PM 30.6117 -81.4903 North 490 564 35,000  Level Jacksonville Center
Thu 01:41:24 PM 30.7431 -81.4786 North 480 552 35,000  Level Jacksonville Center
Thu 01:42:24 PM 30.8744 -81.4694 North 475 547 35,000  Level Jacksonville Center
Thu 01:43:24 PM 31.0058 -81.4578 North 475 547 35,000  Level Jacksonville Center
Thu 01:44:24 PM 31.1394 -81.4458 North 475 547 35,000  Level Jacksonville Center
Thu 01:45:24 PM 31.2769 -81.4292 North 480 552 35,000  Level Jacksonville Center
Thu 01:46:24 PM 31.4061 -81.3956 13° North 481 554 35,000  Level Jacksonville Center
Thu 01:47:24 PM 31.5558 -81.3567 12° North 492 566 35,000  Level Jacksonville Center
Thu 01:48:24 PM 31.6764 -81.3083 19° North 497 572 35,000  Level Jacksonville Center
Thu 01:49:24 PM 31.8086 -81.2058 33° Northeast 506 582 35,000  Level Jacksonville Center
Thu 01:50:24 PM 31.9225 -81.1228 32° Northeast 516 594 35,000  Level Jacksonville Center
Thu 01:51:24 PM 32.0442 -81.0250 34° Northeast 527 606 35,000  Level Jacksonville Center
Thu 01:52:24 PM 32.1806 -80.9214 33° Northeast 527 606 35,000  Level Jacksonville Center
Thu 01:53:24 PM 32.2939 -80.8381 32° Northeast 521 600 35,000  Level Jacksonville Center
Thu 01:54:24 PM 32.4156 -80.7417 34° Northeast 515 593 35,000  Level Jacksonville Center
Thu 01:55:24 PM 32.5369 -80.6453 34° Northeast 515 593 35,000  Level Jacksonville Center
Thu 01:56:24 PM 32.6625 -80.5483 33° Northeast 521 600 35,000  Level Jacksonville Center
Thu 01:57:24 PM 32.7858 -80.4514 33° Northeast 521 600 35,000  Level Jacksonville Center
Thu 01:58:24 PM 32.9092 -80.3539 34° Northeast 521 600 35,000  Level Jacksonville Center
Thu 01:59:24 PM 33.0489 -80.2433 34° Northeast 545 627 35,000  Level Jacksonville Center
Thu 02:00:24 PM 33.1783 -80.1453 32° Northeast 545 627 35,000  Level Jacksonville Center
Thu 02:01:24 PM 33.3014 -80.0444 34° Northeast 545 627 35,000  Level Jacksonville Center
Thu 02:02:24 PM 33.4264 -79.9436 34° Northeast 540 621 35,000  Level Jacksonville Center
Thu 02:03:24 PM 33.5492 -79.8422 35° Northeast 540 621 35,000  Level Jacksonville Center
Thu 02:04:24 PM 33.6739 -79.7431 33° Northeast 540 621 35,000  Level Jacksonville Center
Thu 02:05:24 PM 33.7967 -79.6436 34° Northeast 540 621 35,000  Level Jacksonville Center
Thu 02:06:24 PM 33.9214 -79.5414 34° Northeast 540 621 35,000  Level Jacksonville Center
Thu 02:07:24 PM 34.0481 -79.4414 33° Northeast 540 621 35,000  Level Jacksonville Center
Thu 02:09:46 PM 34.3506 -79.2142 32° Northeast 554 638 35,000  Level Washington Center
Thu 02:10:47 PM 34.4864 -79.1369 25° Northeast 543 625 35,000  Level Washington Center
Thu 02:11:48 PM 34.6222 -79.0597 25° Northeast 537 618 35,000  Level Washington Center
Thu 02:12:46 PM 34.7539 -78.9819 26° Northeast 532 612 35,000 -458 Level Washington Center
Thu 02:13:46 PM 34.8875 -78.9039 26° Northeast 532 612 34,100 -1,091 Descending Washington Center
Thu 02:14:47 PM 35.0189 -78.8281 25° Northeast 532 612 32,800 -1,339 Descending Washington Center
Thu 02:15:47 PM 35.1483 -78.7494 26° Northeast 525 604 31,400 -893 Descending Washington Center
Thu 02:16:48 PM 35.2775 -78.6731 26° Northeast 514 592 31,000 -202 Descending Washington Center
Thu 02:17:46 PM 35.4131 -78.5967 25° Northeast 514 592 31,000  Level Washington Center
Thu 02:18:47 PM 35.5339 -78.5247 26° Northeast 519 597 31,000  Level Washington Center
Thu 02:19:48 PM 35.6736 -78.4431 25° Northeast 534 615 31,000 -496 Level Washington Center
Thu 02:20:48 PM 35.8153 -78.3583 26° Northeast 539 620 30,000 -1,150 Descending Washington Center
Thu 02:21:48 PM 35.9508 -78.2758 26° Northeast 544 626 28,700 -1,240 Descending Washington Center
Thu 02:22:49 PM 36.0861 -78.1956 26° Northeast 539 620 27,500 -1,210 Descending Washington Center
Thu 02:23:47 PM 36.2172 -78.1150 26° Northeast 528 608 26,300 -1,169 Descending Washington Center
Thu 02:24:47 PM 36.3375 -78.0442 25° Northeast 499 574 25,200 -645 Descending Washington Center
Thu 02:25:48 PM 36.4622 -77.9653 27° Northeast 468 539 25,000 -149 Descending Washington Center
Thu 02:26:48 PM 36.5783 -77.8992 25° Northeast 454 522 24,900 -555 Descending Washington Center
Thu 02:27:47 PM 36.7003 -77.8431 20° North 454 522 23,900 -1,000 Descending Washington Center
Thu 02:28:48 PM 36.8161 -77.7947 18° North 449 517 22,900 -934 Descending Washington Center
Thu 02:29:49 PM 36.9317 -77.7433 20° North 444 511 22,000 -458 Descending Washington Center
Thu 02:30:46 PM 37.0431 -77.6994 17° North 438 504 22,000  Level Washington Center
Thu 02:31:46 PM 37.1586 -77.6506 19° North 426 490 22,000  Level Washington Center
Thu 02:32:47 PM 37.2722 -77.5989 20° North 426 490 22,000  Level Washington Center
Thu 02:33:47 PM 37.3856 -77.5494 19° North 426 490 22,000  Level Washington Center
Thu 02:34:48 PM 37.5011 -77.5003 19° North 426 490 22,000 -202 Level Washington Center
Thu 02:35:46 PM 37.6039 -77.4581 18° North 426 490 21,600 -1,160 Descending Washington Center
Thu 02:36:47 PM 37.7153 -77.4111 18° North 426 490 19,700 -1,835 Descending Washington Center
Thu 02:37:47 PM 37.8203 -77.3636 20° North 415 478 17,900 -1,736 Descending Washington Center
Thu 02:38:48 PM 37.9189 -77.3186 20° North 393 452 16,200 -1,686 Descending Washington Center
Thu 02:39:48 PM 38.0197 -77.2761 18° North 387 445 14,500 -1,650 Descending Washington Center
Thu 02:40:48 PM 38.1181 -77.2361 18° North 377 434 12,900 -1,678 Descending Washington Center
Thu 02:41:46 PM 38.2147 -77.1933 19° North 372 428 11,200 -1,475 Descending Washington Center
Thu 02:42:46 PM 38.3089 -77.1556 17° North 361 415 10,000 -595 Descending Washington Center
Thu 02:43:47 PM 38.4156 -77.1339 North 355 409 10,000  Level Washington Center
Thu 02:44:47 PM 38.5139 -77.1119 10° North 355 409 10,000  Level Washington Center
Thu 02:45:48 PM 38.6058 -77.0928 North 355 409 10,000 -556 Level Washington Center
Thu 02:46:35 PM 38.6833 -77.0667 15° North 294 338 9,000 -1,514 Descending Potomac TRACON
Thu 02:47:35 PM 38.7500 -77.0667 360° North 283 326 7,300 -1,500 Descending Potomac TRACON
Thu 02:48:35 PM 38.8333 -77.1167 335° Northwest 282 325 6,000 -1,091 Descending Potomac TRACON
Thu 02:49:36 PM 38.8667 -77.1667 311° West 267 307 5,100 -522 Descending Potomac TRACON
Thu 02:50:30 PM 38.9167 -77.2333 314° West 249 287 5,000 -526 Descending Potomac TRACON
Thu 02:51:30 PM 38.9833 -77.2333 360° North 238 274 4,100 -900 Descending Potomac TRACON
Thu 02:52:30 PM 38.9833 -77.1667 90° East 212 244 3,200 -842 Descending Potomac TRACON
Thu 02:53:24 PM 38.9500 -77.1333 142° Southeast 161 185 2,500 -850 Descending Potomac TRACON
Thu 02:54:30 PM 38.9167 -77.1000 142° Southeast 160 184 1,500 -893 Descending Potomac TRACON
Thu 02:55:25 PM 38.9000 -77.0667 123° Southeast 136 157 700 -873 Descending Potomac TRACON

Login

Don't have an account? Register now (free) for customized features, flight alerts, and more!